WetterOnline ( http://www.wetteronline.de )

Wetter aktuell Mülheim

Aktuelles Wetter: Essen (161m)

6-stündlich | Neueste Meldungen
Ortszeit Temperatur Wetter
Mo, 24.09. 8:00 6.1° C wolkenlos
Mo, 24.09. 2:00 7.4° C wolkenlos
So, 23.09. 20:00 8.6° C leichter Regen
So, 23.09. 14:00 10.8° C leichter Regen
So, 23.09. 8:00 10.3° C Sprühregen
So, 23.09. 2:00 9.7° C Sprühregen
Sa, 22.09. 20:00 9.9° C leichter Regen
Sa, 22.09. 14:00 15.4° C bewölkt
Ortszeit Temperatur Wetter
Mo, 24.09. 11:30 11.6° C leicht bewölkt
Mo, 24.09. 11:20 11.6° C leicht bewölkt
Mo, 24.09. 11:10 11.7° C leicht bewölkt
Mo, 24.09. 11:00 11.2° C leicht bewölkt
Mo, 24.09. 10:50 11.2° C leicht bewölkt
Mo, 24.09. 10:40 10.8° C fast wolkenlos
Mo, 24.09. 10:30 9.9° C wolkenlos
Mo, 24.09. 10:00 9.1° C wolkenlos
Mo, 24.09. 9:30 7.8° C leicht bewölkt
Mo, 24.09. 9:00 7.1° C fast wolkenlos
Mo, 24.09. 8:30 6.5° C leicht bewölkt
Ortszeit Relative Feuchte Sichtweite
Mo, 24.09. 8:00 96% 23 km
Mo, 24.09. 2:00 97% 14 km
So, 23.09. 20:00 96% 13 km
So, 23.09. 14:00 98% 14 km
So, 23.09. 8:00 99% 5.0 km
So, 23.09. 2:00 98% 7 km
Sa, 22.09. 20:00 92% 30 km
Sa, 22.09. 14:00 58% 50 km
Ortszeit Relative Feuchte Sichtweite
Mo, 24.09. 11:30 69% 60 km
Mo, 24.09. 11:20 69% -
Mo, 24.09. 11:10 72% -
Mo, 24.09. 11:00 77% 35 km
Mo, 24.09. 10:50 77% -
Mo, 24.09. 10:40 76% -
Mo, 24.09. 10:30 82% 30 km
Mo, 24.09. 10:00 88% 30 km
Mo, 24.09. 9:30 90% 30 km
Mo, 24.09. 9:00 93% 29 km
Mo, 24.09. 8:30 94% 24 km
Ortszeit Niederschlagsmenge Niederschlagsart
Mo, 24.09. 8:00 1 l/m2 in 12 Std. Regen
Mo, 24.09. 2:00 1 l/m2 in 6 Std. Regen
So, 23.09. 20:00 14 l/m2 in 12 Std. Regen
So, 23.09. 14:00 7 l/m2 in 6 Std. Regen
So, 23.09. 8:00 3 l/m2 in 12 Std. Regen
So, 23.09. 2:00 2 l/m2 in 6 Std. Regen
Sa, 22.09. 20:00 1 l/m2 in 12 Std. Regen
Sa, 22.09. 14:00 0.0 l/m2 in 6 Std. -
Ortszeit Niederschlagsmenge Niederschlagsart
Mo, 24.09. 11:30 0.0 l/m2 in 1 Std. -
Mo, 24.09. 11:20 keine Meldung -
Mo, 24.09. 11:10 keine Meldung -
Mo, 24.09. 11:00 0.0 l/m2 in 1 Std. -
Mo, 24.09. 10:50 keine Meldung -
Mo, 24.09. 10:40 keine Meldung -
Mo, 24.09. 10:30 0.0 l/m2 in 1 Std. -
Mo, 24.09. 10:00 0.1 l/m2 in 1 Std. -
Mo, 24.09. 9:30 0.0 l/m2 in 1 Std. -
Mo, 24.09. 9:00 0.1 l/m2 in 1 Std. -
Mo, 24.09. 8:30 0.1 l/m2 in 1 Std. -
Ortszeit Stärke Spitze Richtung
km/h Bft. km/h Grad Sektor
Mo, 24.09. 8:00 7 2 14 250° W
Mo, 24.09. 2:00 6 1 28 250° W
So, 23.09. 20:00 11 2 43 320° NW
So, 23.09. 14:00 22 4 35 30° NO
So, 23.09. 8:00 4 1 14 60° NO
So, 23.09. 2:00 7 2 15 160° S
Sa, 22.09. 20:00 4 1 47 300° NW
Sa, 22.09. 14:00 18 3 43 220° SW
Ortszeit Stärke Spitze Richtung
km/h Bft. km/h Grad Sektor
Mo, 24.09. 11:30 11 2 22 270° W
Mo, 24.09. 11:20 11 2 - 270° W
Mo, 24.09. 11:10 9 2 - 270° W
Mo, 24.09. 11:00 9 2 20 280° W
Mo, 24.09. 10:50 9 2 - 280° W
Mo, 24.09. 10:40 9 2 - 250° W
Mo, 24.09. 10:30 11 2 22 250° W
Mo, 24.09. 10:00 7 2 14 240° SW
Mo, 24.09. 9:30 11 2 14 240° SW
Mo, 24.09. 9:00 9 2 15 240° SW
Mo, 24.09. 8:30 9 2 15 240° SW
Ortszeit Untergrenze Bedeckung Gattung
total tief tief mittel hoch
Mo, 24.09. 8:00 1800 m 0/8 0/8 - - -
Mo, 24.09. 2:00 - 0/8 0/8 - - -
So, 23.09. 20:00 240 m 8/8 8/8 - - -
So, 23.09. 14:00 120 m 7/8 7/8 - - -
So, 23.09. 8:00 120 m 8/8 8/8 - - -
So, 23.09. 2:00 120 m 8/8 8/8 - - -
Sa, 22.09. 20:00 480 m 8/8 8/8 - - -
Sa, 22.09. 14:00 1170 m 8/8 5/8 - - -
Ortszeit Bedeckungsgrad in Achtel und Wolkenuntergrenze
Mo, 24.09. 11:30 1(810m) 3(2400m)
Mo, 24.09. 11:20 1(810m) 3(2400m) 4(2700m)
Mo, 24.09. 11:10 1(1800m) 4(2400m)
Mo, 24.09. 11:00 4(2400m)
Mo, 24.09. 10:50 4(2400m)
Mo, 24.09. 10:40 1(2700m)
Mo, 24.09. 10:30 1(2100m)
Mo, 24.09. 10:00 keine Wolken
Mo, 24.09. 9:30 2(1800m)
Mo, 24.09. 9:00 1(1500m)
Mo, 24.09. 8:30 2(1800m)
Ortszeit Luftdruck NN (hPa) Tendenz (hPa in 3 Std.)
Mo, 24.09. 8:00 1031 + 2,3
Mo, 24.09. 2:00 1026 + 3,7
So, 23.09. 20:00 1017 + 5,7
So, 23.09. 14:00 1007 - 3,9
So, 23.09. 8:00 1012 - 2,1
So, 23.09. 2:00 1017 - 1,8
Sa, 22.09. 20:00 1020 - 0,2
Sa, 22.09. 14:00 1020 - 1,0
Ortszeit Luftdruck NN (hPa) Tendenz (hPa in 3 Std.)
Mo, 24.09. 11:30 1033 + 2,1
Mo, 24.09. 11:20 1033 keine Meldung
Mo, 24.09. 11:10 1033 keine Meldung
Mo, 24.09. 11:00 1033 + 2,5
Mo, 24.09. 10:50 1033 keine Meldung
Mo, 24.09. 10:40 1033 keine Meldung
Mo, 24.09. 10:30 1033 + 2,6
Mo, 24.09. 10:00 1032 + 2,5
Mo, 24.09. 9:30 1032 + 2,3
Mo, 24.09. 9:00 1032 + 2,5
Mo, 24.09. 8:30 1031 + 2,4
Ortszeit Schneehöhe (cm)
Mo, 24.09. 8:00 -
Mo, 24.09. 2:00 -
So, 23.09. 20:00 -
So, 23.09. 14:00 -
So, 23.09. 8:00 -
So, 23.09. 2:00 -
Sa, 22.09. 20:00 -
Sa, 22.09. 14:00 -
Ortszeit Schneehöhe (cm)
Mo, 24.09. 11:30 -
Mo, 24.09. 11:20 -
Mo, 24.09. 11:10 -
Mo, 24.09. 11:00 -
Mo, 24.09. 10:50 -
Mo, 24.09. 10:40 -
Mo, 24.09. 10:30 -
Mo, 24.09. 10:00 -
Mo, 24.09. 9:30 -
Mo, 24.09. 9:00 -
Mo, 24.09. 8:30 -
Link zu dieser Seite / Seite empfehlen

Das Wetter in ...